createdAt,value
2022-09-20T00:02:42.040Z,8.23
2022-09-20T00:05:45.588Z,6.07
2022-09-20T00:08:48.220Z,7.13
2022-09-20T00:11:49.607Z,6.17
2022-09-20T00:14:50.986Z,3.57
2022-09-20T00:17:52.386Z,11.10
2022-09-20T00:20:53.765Z,5.70
2022-09-20T00:23:57.320Z,7.40
2022-09-20T00:26:58.736Z,6.83
2022-09-20T00:30:00.185Z,6.40
2022-09-20T00:33:01.941Z,7.33
2022-09-20T00:36:03.426Z,4.60
2022-09-20T00:39:04.844Z,7.07
2022-09-20T00:42:06.620Z,5.00
2022-09-20T00:45:23.172Z,4.60
2022-09-20T00:48:30.124Z,4.60
2022-09-20T00:51:34.990Z,8.63
2022-09-20T00:54:36.572Z,4.57
2022-09-20T00:57:38.970Z,5.73
2022-09-20T01:00:42.550Z,6.37
2022-09-20T01:03:45.013Z,4.50
2022-09-20T01:06:48.140Z,5.37
2022-09-20T01:09:51.010Z,7.17
2022-09-20T01:12:53.766Z,4.00
2022-09-20T01:15:58.941Z,5.13
2022-09-20T01:19:06.009Z,13.10
2022-09-20T01:22:36.708Z,4.63
2022-09-20T01:26:03.528Z,6.47
2022-09-20T01:29:34.909Z,5.30
2022-09-20T01:32:57.808Z,9.80
2022-09-20T01:36:04.393Z,6.13
2022-09-20T01:39:18.726Z,5.30
2022-09-20T01:42:33.447Z,6.40
2022-09-20T01:45:34.951Z,4.20
2022-09-20T01:48:40.054Z,6.03
2022-09-20T01:52:31.580Z,4.07
2022-09-20T01:56:03.048Z,7.30
2022-09-20T01:59:32.847Z,4.63
2022-09-20T02:02:59.217Z,8.30
2022-09-20T02:06:21.488Z,7.20
2022-09-20T02:09:32.199Z,8.17
2022-09-20T02:12:54.160Z,8.13
2022-09-20T02:16:16.007Z,4.70
2022-09-20T02:19:57.409Z,7.73
2022-09-20T02:23:11.715Z,5.27
2022-09-20T02:26:56.947Z,4.60
2022-09-20T02:30:21.714Z,5.77
2022-09-20T02:33:39.982Z,6.43
2022-09-20T02:37:15.980Z,4.93
2022-09-20T02:40:26.494Z,5.87
2022-09-20T02:43:47.196Z,6.00
2022-09-20T02:47:20.822Z,3.57
2022-09-20T02:50:46.970Z,7.03
2022-09-20T02:54:06.392Z,6.50
2022-09-20T02:57:29.090Z,5.83
2022-09-20T03:00:44.284Z,3.70
2022-09-20T03:04:33.736Z,6.20
2022-09-20T03:07:57.963Z,4.83
2022-09-20T03:11:18.518Z,4.50
2022-09-20T03:14:27.548Z,5.13
2022-09-20T03:17:51.440Z,6.87
2022-09-20T03:21:22.685Z,8.00
2022-09-20T03:24:37.057Z,4.87
2022-09-20T03:27:49.096Z,5.70
2022-09-20T03:31:11.761Z,3.80
2022-09-20T03:34:31.818Z,3.97
2022-09-20T03:37:58.085Z,6.13
2022-09-20T03:41:13.953Z,3.00
2022-09-20T03:44:36.964Z,5.60
2022-09-20T03:47:44.309Z,2.80
2022-09-20T03:51:09.220Z,4.70
2022-09-20T03:54:32.188Z,3.20
2022-09-20T03:57:57.732Z,5.83
2022-09-20T04:01:20.959Z,3.47
2022-09-20T04:04:40.675Z,4.13
2022-09-20T04:08:00.979Z,6.13
2022-09-20T04:11:08.404Z,3.70
2022-09-20T04:14:18.282Z,6.23
2022-09-20T04:17:38.300Z,5.00
2022-09-20T04:20:46.414Z,3.83
2022-09-20T04:23:59.068Z,6.00
2022-09-20T04:27:05.880Z,5.53
2022-09-20T04:30:19.706Z,2.80
2022-09-20T04:33:33.697Z,4.27
2022-09-20T04:36:58.254Z,5.63
2022-09-20T04:40:14.529Z,5.30
2022-09-20T04:43:53.650Z,3.60
2022-09-20T04:47:42.851Z,7.83
2022-09-20T04:51:13.432Z,6.53
2022-09-20T04:54:49.312Z,8.67
2022-09-20T04:58:22.925Z,4.97
2022-09-20T05:02:08.340Z,5.80
2022-09-20T05:05:36.480Z,4.87
2022-09-20T05:08:59.345Z,5.33
2022-09-20T05:12:19.756Z,4.60
2022-09-20T05:15:38.480Z,8.03
2022-09-20T05:19:13.054Z,5.17
2022-09-20T05:22:42.350Z,5.70
2022-09-20T05:25:59.039Z,6.93
2022-09-20T05:29:25.110Z,7.23
2022-09-20T05:32:48.480Z,9.07
2022-09-20T05:36:34.389Z,5.00
2022-09-20T05:39:49.579Z,4.27
2022-09-20T05:43:05.986Z,8.90
2022-09-20T05:46:13.154Z,7.07
2022-09-20T05:49:41.933Z,7.10
2022-09-20T05:53:05.138Z,9.10
2022-09-20T05:56:19.050Z,7.73
2022-09-20T05:59:40.119Z,13.23
2022-09-20T06:03:10.378Z,6.37
2022-09-20T06:06:18.192Z,8.13
2022-09-20T06:09:41.013Z,8.13
2022-09-20T06:13:00.527Z,5.50
2022-09-20T06:16:05.130Z,8.47
2022-09-20T06:19:19.908Z,6.47
2022-09-20T06:22:29.641Z,5.67
2022-09-20T06:25:42.822Z,6.40
2022-09-20T06:28:54.221Z,7.07
2022-09-20T06:31:59.312Z,7.97
2022-09-20T06:35:03.397Z,8.93
2022-09-20T06:38:42.422Z,7.47
2022-09-20T06:41:44.731Z,6.70
2022-09-20T06:44:46.873Z,6.30
2022-09-20T06:47:48.377Z,6.57
2022-09-20T06:50:49.823Z,7.83
2022-09-20T06:53:52.551Z,8.53
2022-09-20T06:56:54.688Z,5.13
2022-09-20T06:59:56.125Z,7.30
2022-09-20T07:02:57.547Z,9.33
2022-09-20T07:06:00.481Z,6.57
2022-09-20T07:09:02.220Z,5.10
2022-09-20T07:12:03.877Z,5.00
2022-09-20T07:15:06.178Z,6.90
2022-09-20T07:18:08.113Z,6.97
2022-09-20T07:21:15.054Z,4.73
2022-09-20T07:24:16.436Z,8.60
2022-09-20T07:27:17.955Z,4.93
2022-09-20T07:30:20.265Z,5.00
2022-09-20T07:33:22.033Z,8.13
2022-09-20T07:36:23.666Z,6.87
2022-09-20T07:39:25.735Z,7.80
2022-09-20T07:42:29.007Z,7.03
2022-09-20T07:45:31.131Z,5.07
2022-09-20T07:48:35.142Z,6.80
2022-09-20T07:51:36.579Z,8.80
2022-09-20T07:54:38.111Z,9.40
2022-09-20T07:57:39.610Z,6.90
2022-09-20T08:00:40.980Z,7.27
2022-09-20T08:03:42.871Z,9.87
2022-09-20T08:06:45.362Z,8.37
2022-09-20T08:09:46.736Z,9.03
2022-09-20T08:16:11.886Z,8.97
2022-09-20T08:19:21.557Z,10.63
2022-09-20T08:22:23.145Z,6.97
2022-09-20T08:25:24.818Z,10.20
2022-09-20T08:28:26.202Z,7.30
2022-09-20T08:31:36.554Z,9.87
2022-09-20T08:34:39.534Z,11.53
2022-09-20T08:37:43.548Z,14.53
2022-09-20T08:40:45.112Z,12.97
2022-09-20T08:44:11.556Z,8.80
2022-09-20T08:47:36.498Z,8.90
2022-09-20T08:50:37.976Z,9.37
2022-09-20T08:53:49.116Z,8.43
2022-09-20T08:56:51.030Z,8.87
2022-09-20T08:59:52.837Z,12.30
2022-09-20T09:02:56.996Z,12.23
2022-09-20T09:05:58.685Z,11.27
2022-09-20T09:09:00.143Z,12.00
2022-09-20T09:12:01.920Z,12.87
2022-09-20T09:15:36.712Z,10.10
2022-09-20T09:18:41.252Z,10.37
2022-09-20T09:21:43.178Z,7.33
2022-09-20T09:24:44.880Z,9.90
2022-09-20T09:27:58.343Z,12.43
2022-09-20T09:31:28.882Z,9.40
2022-09-20T09:34:33.905Z,15.07
2022-09-20T09:37:35.296Z,12.70
2022-09-20T09:40:36.784Z,13.47
2022-09-20T09:43:40.473Z,13.77
2022-09-20T09:46:41.886Z,11.77
2022-09-20T09:50:02.677Z,12.07
2022-09-20T09:53:12.381Z,11.67
2022-09-20T09:56:34.560Z,8.27
2022-09-20T10:00:06.644Z,8.97
2022-09-20T10:03:31.873Z,10.77
2022-09-20T10:07:03.251Z,8.23
2022-09-20T10:10:43.436Z,8.30
2022-09-20T10:14:07.501Z,6.90
2022-09-20T10:17:27.524Z,10.53
2022-09-20T10:20:53.123Z,8.80
2022-09-20T10:24:33.442Z,8.23
2022-09-20T10:28:08.678Z,8.93
2022-09-20T10:31:26.030Z,9.60
2022-09-20T10:34:30.508Z,8.07
2022-09-20T10:37:49.071Z,9.70
2022-09-20T10:41:15.225Z,7.87
2022-09-20T10:44:19.394Z,6.70
2022-09-20T10:47:31.353Z,6.90
2022-09-20T10:50:45.482Z,5.10
2022-09-20T10:53:59.238Z,6.97
2022-09-20T10:57:26.809Z,8.13
2022-09-20T11:00:54.426Z,9.90
2022-09-20T11:04:12.149Z,10.90
2022-09-20T11:07:32.721Z,8.87
2022-09-20T11:10:42.966Z,8.53
2022-09-20T11:13:58.129Z,8.43
2022-09-20T11:17:15.737Z,6.73
2022-09-20T11:20:24.259Z,7.27
2022-09-20T11:23:51.312Z,4.27
2022-09-20T11:26:56.853Z,5.03
2022-09-20T11:30:04.230Z,5.63
2022-09-20T11:33:18.140Z,6.50
2022-09-20T11:36:26.800Z,3.93
2022-09-20T11:39:30.830Z,9.77
2022-09-20T11:42:36.351Z,7.50
2022-09-20T11:45:40.108Z,4.60
2022-09-20T11:48:51.521Z,7.10
2022-09-20T11:52:11.333Z,10.77
2022-09-20T11:55:24.424Z,6.80
2022-09-20T11:58:27.295Z,7.23
2022-09-20T12:01:32.501Z,10.23
2022-09-20T12:04:36.224Z,4.57
2022-09-20T12:07:40.898Z,4.03
2022-09-20T12:10:42.741Z,5.93
2022-09-20T12:13:55.256Z,4.80
2022-09-20T12:16:57.008Z,3.93
2022-09-20T12:19:58.713Z,2.90
2022-09-20T12:23:37.150Z,2.00
2022-09-20T12:26:41.787Z,2.40
2022-09-20T12:29:47.464Z,2.13
2022-09-20T12:32:54.999Z,4.33
2022-09-20T12:36:15.740Z,2.47
2022-09-20T12:39:22.551Z,3.77
2022-09-20T12:42:33.028Z,3.50
2022-09-20T12:45:35.442Z,4.07
2022-09-20T12:48:37.964Z,3.83
2022-09-20T12:51:57.646Z,1.50
2022-09-20T12:55:03.780Z,3.07
2022-09-20T12:58:14.180Z,5.23
2022-09-20T13:01:15.546Z,2.83
2022-09-20T13:04:55.348Z,4.37
2022-09-20T13:08:02.841Z,3.60
2022-09-20T13:11:07.309Z,5.73
2022-09-20T13:14:26.134Z,5.67
2022-09-20T13:17:31.713Z,3.03
2022-09-20T13:20:35.019Z,3.23
2022-09-20T13:23:46.618Z,4.40
2022-09-20T13:26:49.641Z,5.27
2022-09-20T13:29:51.717Z,5.83
2022-09-20T13:32:53.250Z,3.67
2022-09-20T13:35:58.022Z,6.73
2022-09-20T13:39:00.076Z,3.50
2022-09-20T13:42:09.058Z,3.80
2022-09-20T13:45:13.827Z,1.97
2022-09-20T13:48:16.606Z,5.20
2022-09-20T13:51:20.449Z,3.47
2022-09-20T13:54:33.170Z,4.27
2022-09-20T13:57:34.845Z,2.03
2022-09-20T14:00:38.133Z,2.53
2022-09-20T14:03:39.840Z,3.10
2022-09-20T14:06:42.384Z,2.50
2022-09-20T14:09:44.197Z,6.07
2022-09-20T14:12:49.012Z,4.07
2022-09-20T14:15:50.554Z,2.90
2022-09-20T14:18:52.166Z,5.67
2022-09-20T14:21:53.950Z,2.63
2022-09-20T14:25:12.422Z,4.03
2022-09-20T14:28:20.234Z,4.67
2022-09-20T14:31:31.575Z,3.70
2022-09-20T14:34:37.805Z,2.83
2022-09-20T14:37:59.270Z,8.20
2022-09-20T14:41:00.742Z,4.73
2022-09-20T14:44:03.535Z,3.63
2022-09-20T14:47:15.415Z,2.87
2022-09-20T14:50:54.453Z,3.07
2022-09-20T14:54:04.996Z,3.87
2022-09-20T14:57:06.568Z,3.53
2022-09-20T15:00:11.768Z,2.57
2022-09-20T15:03:16.332Z,2.60
2022-09-20T15:06:17.861Z,2.73
2022-09-20T15:09:21.602Z,5.20
2022-09-20T15:12:23.034Z,3.00
2022-09-20T15:15:24.489Z,2.80
2022-09-20T15:18:28.741Z,3.03
2022-09-20T15:21:30.412Z,3.33
2022-09-20T15:24:31.865Z,4.67
2022-09-20T15:27:33.616Z,3.43
2022-09-20T15:30:35.723Z,5.67
2022-09-20T15:33:37.480Z,3.20
2022-09-20T15:36:40.582Z,3.33
2022-09-20T15:39:41.940Z,4.53
2022-09-20T15:42:43.818Z,3.83
2022-09-20T15:45:53.592Z,4.73
2022-09-20T15:48:56.339Z,2.97
2022-09-20T15:51:57.767Z,2.97
2022-09-20T15:55:00.177Z,4.43
2022-09-20T15:58:01.573Z,4.17
2022-09-20T16:01:07.934Z,3.83
2022-09-20T16:04:12.382Z,2.60
2022-09-20T16:07:14.396Z,2.70
2022-09-20T16:10:15.842Z,5.37
2022-09-20T16:13:17.220Z,3.47
2022-09-20T16:16:18.700Z,3.20
2022-09-20T16:19:20.687Z,5.33
2022-09-20T16:22:22.323Z,4.57
2022-09-20T16:25:23.897Z,4.07
2022-09-20T16:28:25.424Z,4.37
2022-09-20T16:31:49.228Z,3.80
2022-09-20T16:34:51.040Z,1.60
2022-09-20T16:37:52.550Z,2.47
2022-09-20T16:40:55.601Z,3.93
2022-09-20T16:43:57.033Z,3.37
2022-09-20T16:46:58.578Z,3.17
2022-09-20T16:50:00.031Z,2.83
2022-09-20T16:53:01.408Z,2.03
2022-09-20T16:56:06.009Z,3.03
2022-09-20T16:59:08.085Z,3.30
2022-09-20T17:02:12.657Z,5.23
2022-09-20T17:05:14.169Z,4.57
2022-09-20T17:08:15.573Z,2.23
2022-09-20T17:11:21.648Z,4.37
2022-09-20T17:14:24.953Z,3.20
2022-09-20T17:17:26.411Z,2.50
2022-09-20T17:20:30.011Z,6.50
2022-09-20T17:23:35.486Z,1.60
2022-09-20T17:26:40.243Z,3.43
2022-09-20T17:29:41.664Z,3.43
2022-09-20T17:32:47.998Z,3.00
2022-09-20T17:35:52.530Z,3.53
2022-09-20T17:38:56.576Z,5.27
2022-09-20T17:42:01.329Z,7.30
2022-09-20T17:45:02.723Z,3.67
2022-09-20T17:48:04.620Z,8.00
2022-09-20T17:51:09.227Z,9.80
2022-09-20T17:54:14.677Z,4.83
2022-09-20T17:57:16.048Z,8.47
2022-09-20T18:00:17.418Z,6.67
2022-09-20T18:03:19.021Z,5.67
2022-09-20T18:06:29.424Z,7.13
2022-09-20T18:09:30.861Z,8.63
2022-09-20T18:12:32.234Z,9.10
2022-09-20T18:15:34.103Z,12.23
2022-09-20T18:18:35.599Z,8.53
2022-09-20T18:21:39.197Z,10.83
2022-09-20T18:24:40.561Z,11.47
2022-09-20T18:27:42.275Z,7.10
2022-09-20T18:30:46.085Z,7.27
2022-09-20T18:33:47.465Z,7.00
2022-09-20T18:36:57.489Z,8.67
2022-09-20T18:39:58.925Z,8.37
2022-09-20T18:43:04.506Z,8.20
2022-09-20T18:46:06.198Z,7.80
2022-09-20T18:49:09.580Z,4.70
2022-09-20T18:52:12.228Z,5.40
2022-09-20T18:55:14.690Z,8.53
2022-09-20T18:58:20.709Z,11.13
2022-09-20T19:01:50.268Z,9.27
2022-09-20T19:04:58.856Z,9.33
2022-09-20T19:08:17.140Z,11.13
2022-09-20T19:11:27.600Z,9.30
2022-09-20T19:14:40.320Z,8.53
2022-09-20T19:17:57.015Z,6.73
2022-09-20T19:21:18.940Z,8.87
2022-09-20T19:25:01.189Z,8.43
2022-09-20T19:28:02.764Z,9.40
2022-09-20T19:31:04.486Z,9.47
2022-09-20T19:34:15.197Z,10.33
2022-09-20T19:37:54.960Z,9.73
2022-09-20T19:41:47.179Z,11.90
2022-09-20T19:45:20.965Z,12.43
2022-09-20T19:48:37.131Z,10.07
2022-09-20T19:51:40.965Z,8.80
2022-09-20T19:54:46.648Z,11.30
2022-09-20T19:57:48.517Z,7.50
2022-09-20T20:00:50.161Z,8.13
2022-09-20T20:03:53.157Z,5.07
2022-09-20T20:07:27.866Z,8.93
2022-09-20T20:10:39.419Z,9.20
2022-09-20T20:14:03.027Z,21.73
2022-09-20T20:17:30.058Z,9.10
2022-09-20T20:20:39.480Z,9.27
2022-09-20T20:24:04.832Z,5.27
2022-09-20T20:27:06.468Z,4.97
2022-09-20T20:30:08.565Z,4.40
2022-09-20T20:33:16.791Z,8.17
2022-09-20T20:36:18.416Z,6.70
2022-09-20T20:39:20.013Z,5.03
2022-09-20T20:42:21.507Z,5.00
2022-09-20T20:45:22.873Z,8.23
2022-09-20T20:48:24.360Z,6.93
2022-09-20T20:51:27.145Z,4.67
2022-09-20T20:54:28.774Z,6.33
2022-09-20T20:57:31.264Z,6.50
2022-09-20T21:00:32.638Z,6.93
2022-09-20T21:03:35.258Z,6.83
2022-09-20T21:06:40.496Z,9.40
2022-09-20T21:09:42.305Z,7.87
2022-09-20T21:12:44.380Z,8.23
2022-09-20T21:15:46.319Z,8.20
2022-09-20T21:18:50.097Z,12.00
2022-09-20T21:21:51.721Z,9.33
2022-09-20T21:24:53.996Z,9.40
2022-09-20T21:27:55.457Z,9.37
2022-09-20T21:30:59.514Z,7.50
2022-09-20T21:34:06.974Z,7.13
2022-09-20T21:37:09.520Z,7.77
2022-09-20T21:40:11.173Z,7.83
2022-09-20T21:43:13.900Z,8.10
2022-09-20T21:46:17.908Z,8.70
2022-09-20T21:49:19.395Z,9.60
2022-09-20T21:52:20.766Z,11.83
2022-09-20T21:55:22.156Z,10.40
2022-09-20T21:58:24.015Z,9.57
2022-09-20T22:01:27.314Z,8.90
2022-09-20T22:04:29.091Z,6.37
2022-09-20T22:07:30.470Z,6.83
2022-09-20T22:10:31.930Z,7.83
2022-09-20T22:13:33.844Z,8.67
2022-09-20T22:16:37.841Z,5.67
2022-09-20T22:19:39.920Z,6.90
2022-09-20T22:22:41.398Z,8.07
2022-09-20T22:25:42.917Z,5.20
2022-09-20T22:28:44.327Z,4.30
2022-09-20T22:31:47.738Z,6.73
2022-09-20T22:34:49.096Z,7.53
2022-09-20T22:37:50.468Z,6.70
2022-09-20T22:40:53.795Z,10.77
2022-09-20T22:43:55.445Z,6.90
2022-09-20T22:46:56.814Z,6.07
2022-09-20T22:49:58.200Z,7.10
2022-09-20T22:52:59.576Z,6.43
2022-09-20T22:56:06.073Z,6.20
2022-09-20T22:59:12.608Z,4.67
2022-09-20T23:02:13.997Z,6.63
2022-09-20T23:05:16.958Z,5.77
2022-09-20T23:08:18.684Z,6.53
2022-09-20T23:11:20.473Z,5.53
2022-09-20T23:14:22.796Z,7.53
2022-09-20T23:17:24.232Z,6.87
2022-09-20T23:20:25.692Z,4.50
2022-09-20T23:23:27.674Z,8.83
2022-09-20T23:26:31.456Z,7.37
2022-09-20T23:29:33.508Z,7.33
2022-09-20T23:32:34.872Z,7.03
2022-09-20T23:35:42.579Z,6.93
2022-09-20T23:38:44.742Z,6.87
2022-09-20T23:41:50.802Z,7.93
2022-09-20T23:44:52.782Z,6.77
2022-09-20T23:47:54.186Z,8.00
2022-09-20T23:50:56.453Z,5.60
2022-09-20T23:53:58.196Z,9.50
2022-09-20T23:56:59.574Z,5.37
